createdAt,value
2022-11-05T00:00:21.844Z,98.43
2022-11-05T00:01:21.905Z,99.19
2022-11-05T00:02:21.853Z,99.19
2022-11-05T00:03:21.928Z,99.76
2022-11-05T00:04:25.531Z,99.99
2022-11-05T00:05:21.870Z,99.57
2022-11-05T00:06:21.869Z,99.47
2022-11-05T00:07:21.876Z,99.19
2022-11-05T00:08:21.880Z,99.38
2022-11-05T00:09:21.885Z,98.33
2022-11-05T00:10:21.892Z,98.43
2022-11-05T00:11:21.894Z,98.52
2022-11-05T00:12:21.919Z,98.58
2022-11-05T00:13:21.905Z,97.53
2022-11-05T00:14:21.921Z,98.48
2022-11-05T00:15:21.914Z,98.39
2022-11-05T00:16:21.931Z,99.05
2022-11-05T00:17:21.931Z,99.62
2022-11-05T00:18:21.929Z,99.99
2022-11-05T00:19:21.938Z,99.99
2022-11-05T00:20:21.939Z,99.99
2022-11-05T00:21:21.943Z,99.99
2022-11-05T00:22:21.948Z,99.99
2022-11-05T00:23:21.951Z,99.99
2022-11-05T00:24:24.359Z,99.99
2022-11-05T00:25:21.975Z,99.99
2022-11-05T00:26:21.970Z,99.99
2022-11-05T00:27:21.983Z,99.99
2022-11-05T00:28:22.000Z,99.99
2022-11-05T00:29:21.983Z,99.99
2022-11-05T00:30:21.994Z,99.99
2022-11-05T00:31:21.992Z,99.99
2022-11-05T00:32:22.009Z,99.99
2022-11-05T00:33:21.999Z,99.99
2022-11-05T00:34:22.016Z,99.99
2022-11-05T00:35:22.010Z,99.99
2022-11-05T00:36:22.016Z,99.99
2022-11-05T00:37:22.020Z,99.99
2022-11-05T00:38:22.026Z,99.99
2022-11-05T00:39:22.028Z,99.99
2022-11-05T00:40:22.035Z,99.99
2022-11-05T00:41:22.039Z,99.99
2022-11-05T00:42:22.047Z,99.99
2022-11-05T00:43:22.050Z,99.99
2022-11-05T00:44:22.075Z,99.99
2022-11-05T00:45:22.056Z,99.99
2022-11-05T00:46:22.065Z,99.99
2022-11-05T00:47:22.068Z,99.99
2022-11-05T00:48:22.077Z,99.99
2022-11-05T00:49:22.091Z,99.99
2022-11-05T00:50:22.086Z,99.99
2022-11-05T00:51:22.086Z,99.99
2022-11-05T00:52:22.092Z,99.99
2022-11-05T00:53:22.099Z,99.99
2022-11-05T00:54:22.116Z,99.99
2022-11-05T00:55:22.108Z,99.99
2022-11-05T00:56:22.113Z,99.99
2022-11-05T00:57:22.117Z,99.99
2022-11-05T00:58:22.125Z,99.99
2022-11-05T00:59:22.125Z,99.99
2022-11-05T01:00:22.177Z,99.99
2022-11-05T01:01:22.278Z,99.99
2022-11-05T01:02:22.281Z,99.99
2022-11-05T01:03:22.170Z,99.99
2022-11-05T01:04:22.152Z,99.99
2022-11-05T01:05:22.157Z,99.99
2022-11-05T01:06:22.162Z,99.99
2022-11-05T01:07:22.176Z,99.99
2022-11-05T01:08:22.171Z,99.99
2022-11-05T01:09:22.182Z,99.99
2022-11-05T01:10:22.182Z,99.99
2022-11-05T01:11:22.181Z,99.99
2022-11-05T01:12:22.190Z,99.99
2022-11-05T01:13:22.193Z,99.99
2022-11-05T01:14:22.199Z,99.99
2022-11-05T01:15:22.204Z,99.99
2022-11-05T01:16:22.229Z,99.99
2022-11-05T01:17:22.211Z,99.99
2022-11-05T01:18:22.224Z,99.99
2022-11-05T01:19:22.324Z,99.99
2022-11-05T01:20:22.229Z,99.99
2022-11-05T01:21:22.231Z,99.99
2022-11-05T01:22:22.250Z,99.99
2022-11-05T01:23:22.369Z,99.99
2022-11-05T01:24:22.249Z,99.99
2022-11-05T01:25:22.255Z,99.99
2022-11-05T01:26:22.257Z,99.99
2022-11-05T01:27:22.266Z,99.99
2022-11-05T01:28:22.356Z,99.99
2022-11-05T01:29:22.275Z,99.99
2022-11-05T01:30:22.280Z,99.99
2022-11-05T01:31:22.282Z,99.99
2022-11-05T01:32:22.311Z,99.99
2022-11-05T01:33:22.296Z,99.99
2022-11-05T01:34:22.299Z,99.99
2022-11-05T01:35:22.304Z,99.99
2022-11-05T01:36:22.315Z,99.99
2022-11-05T01:37:22.317Z,99.15
2022-11-05T01:38:22.320Z,96.97
2022-11-05T01:39:22.323Z,95.93
2022-11-05T01:40:22.330Z,97.53
2022-11-05T01:41:22.335Z,98.39
2022-11-05T01:42:22.342Z,97.39
2022-11-05T01:43:22.346Z,93.51
2022-11-05T01:44:22.358Z,93.61
2022-11-05T01:45:22.352Z,94.08
2022-11-05T01:46:22.361Z,96.07
2022-11-05T01:47:22.394Z,96.16
2022-11-05T01:48:22.389Z,94.37
2022-11-05T01:49:22.405Z,93.23
2022-11-05T01:50:22.381Z,92.66
2022-11-05T01:51:22.383Z,93.61
2022-11-05T01:52:22.394Z,92.10
2022-11-05T01:53:22.395Z,92.57
2022-11-05T01:54:22.401Z,92.85
2022-11-05T01:55:22.404Z,94.65
2022-11-05T01:56:22.412Z,92.57
2022-11-05T01:57:22.415Z,92.38
2022-11-05T01:58:22.421Z,92.00
2022-11-05T01:59:22.424Z,92.47
2022-11-05T02:00:22.429Z,93.13
2022-11-05T02:01:22.537Z,92.76
2022-11-05T02:02:22.567Z,93.32
2022-11-05T02:03:22.442Z,93.99
2022-11-05T02:04:22.466Z,90.68
2022-11-05T02:05:22.453Z,90.30
2022-11-05T02:06:22.459Z,91.15
2022-11-05T02:07:22.463Z,91.91
2022-11-05T02:08:22.468Z,92.85
2022-11-05T02:09:22.486Z,92.94
2022-11-05T02:10:22.478Z,93.51
2022-11-05T02:11:22.479Z,93.42
2022-11-05T02:12:22.486Z,92.57
2022-11-05T02:13:22.489Z,91.24
2022-11-05T02:14:22.498Z,90.86
2022-11-05T02:15:22.500Z,92.94
2022-11-05T02:16:22.503Z,95.31
2022-11-05T02:17:22.516Z,95.03
2022-11-05T02:18:22.514Z,95.31
2022-11-05T02:19:22.518Z,93.23
2022-11-05T02:20:22.545Z,93.13
2022-11-05T02:21:22.528Z,94.27
2022-11-05T02:22:22.532Z,94.46
2022-11-05T02:23:22.563Z,95.40
2022-11-05T02:24:22.542Z,96.26
2022-11-05T02:25:22.547Z,97.58
2022-11-05T02:26:22.554Z,98.52
2022-11-05T02:27:22.556Z,99.00
2022-11-05T02:28:22.568Z,97.49
2022-11-05T02:29:22.565Z,97.30
2022-11-05T02:30:22.574Z,97.30
2022-11-05T02:31:22.608Z,96.54
2022-11-05T02:32:22.580Z,96.35
2022-11-05T02:33:22.585Z,96.26
2022-11-05T02:34:22.602Z,96.69
2022-11-05T02:35:22.595Z,96.35
2022-11-05T02:36:22.620Z,96.59
2022-11-05T02:37:22.603Z,96.83
2022-11-05T02:38:22.610Z,97.30
2022-11-05T02:39:22.621Z,97.30
2022-11-05T02:40:22.627Z,97.30
2022-11-05T02:41:22.623Z,96.16
2022-11-05T02:42:22.629Z,94.08
2022-11-05T02:43:22.645Z,93.42
2022-11-05T02:44:22.640Z,94.27
2022-11-05T02:45:22.642Z,94.18
2022-11-05T02:46:22.648Z,92.57
2022-11-05T02:47:22.655Z,92.57
2022-11-05T02:48:22.659Z,92.57
2022-11-05T02:49:22.671Z,92.80
2022-11-05T02:50:22.674Z,92.52
2022-11-05T02:51:22.671Z,92.47
2022-11-05T02:52:22.696Z,92.66
2022-11-05T02:53:22.682Z,92.05
2022-11-05T02:54:22.688Z,92.61
2022-11-05T02:55:22.690Z,92.52
2022-11-05T02:56:22.695Z,92.14
2022-11-05T02:57:22.699Z,92.80
2022-11-05T02:58:22.704Z,92.47
2022-11-05T02:59:22.714Z,92.80
2022-11-05T03:00:22.715Z,91.43
2022-11-05T03:01:22.822Z,90.11
2022-11-05T03:02:22.848Z,90.06
2022-11-05T03:03:22.726Z,90.20
2022-11-05T03:04:22.738Z,89.87
2022-11-05T03:05:22.736Z,90.25
2022-11-05T03:06:22.740Z,90.58
2022-11-05T03:07:22.744Z,88.98
2022-11-05T03:08:22.784Z,88.55
2022-11-05T03:09:22.756Z,89.17
2022-11-05T03:10:22.761Z,89.59
2022-11-05T03:11:22.767Z,90.25
2022-11-05T03:12:22.771Z,90.91
2022-11-05T03:13:22.772Z,91.58
2022-11-05T03:14:22.778Z,91.24
2022-11-05T03:15:22.782Z,91.43
2022-11-05T03:16:22.787Z,91.91
2022-11-05T03:17:22.790Z,92.38
2022-11-05T03:18:22.796Z,91.86
2022-11-05T03:19:22.800Z,92.76
2022-11-05T03:20:22.805Z,91.43
2022-11-05T03:21:22.808Z,89.64
2022-11-05T03:22:22.816Z,89.45
2022-11-05T03:23:22.819Z,90.20
2022-11-05T03:24:22.846Z,90.30
2022-11-05T03:25:22.832Z,89.73
2022-11-05T03:26:22.832Z,90.30
2022-11-05T03:27:22.836Z,89.54
2022-11-05T03:28:22.843Z,88.98
2022-11-05T03:29:22.847Z,90.11
2022-11-05T03:30:22.851Z,91.05
2022-11-05T03:31:22.869Z,90.58
2022-11-05T03:32:22.864Z,91.05
2022-11-05T03:33:22.866Z,92.76
2022-11-05T03:34:22.874Z,92.94
2022-11-05T03:35:22.876Z,93.32
2022-11-05T03:36:22.881Z,92.29
2022-11-05T03:37:22.884Z,92.57
2022-11-05T03:38:22.898Z,92.94
2022-11-05T03:39:22.893Z,92.76
2022-11-05T03:40:22.917Z,92.00
2022-11-05T03:41:22.917Z,92.57
2022-11-05T03:42:22.909Z,92.66
2022-11-05T03:43:22.911Z,93.32
2022-11-05T03:44:22.918Z,93.99
2022-11-05T03:45:22.922Z,93.42
2022-11-05T03:46:22.927Z,92.38
2022-11-05T03:47:22.930Z,91.34
2022-11-05T03:48:23.092Z,90.39
2022-11-05T03:49:22.943Z,90.68
2022-11-05T03:50:22.947Z,90.58
2022-11-05T03:51:22.950Z,89.78
2022-11-05T03:52:22.956Z,89.83
2022-11-05T03:53:23.008Z,91.62
2022-11-05T03:54:22.970Z,92.38
2022-11-05T03:55:22.970Z,92.05
2022-11-05T03:56:22.993Z,91.48
2022-11-05T03:57:22.985Z,91.58
2022-11-05T03:58:22.990Z,92.43
2022-11-05T03:59:22.989Z,92.43
2022-11-05T04:00:22.992Z,91.29
2022-11-05T04:01:23.088Z,90.72
2022-11-05T04:02:23.139Z,90.63
2022-11-05T04:03:23.016Z,90.16
2022-11-05T04:04:23.017Z,90.06
2022-11-05T04:05:23.016Z,90.53
2022-11-05T04:06:23.023Z,90.63
2022-11-05T04:07:23.028Z,90.91
2022-11-05T04:08:23.032Z,90.91
2022-11-05T04:09:23.039Z,90.72
2022-11-05T04:10:23.044Z,90.44
2022-11-05T04:11:23.045Z,90.82
2022-11-05T04:12:23.072Z,90.53
2022-11-05T04:13:23.056Z,89.78
2022-11-05T04:14:23.062Z,89.21
2022-11-05T04:15:23.065Z,89.21
2022-11-05T04:16:23.074Z,89.40
2022-11-05T04:17:23.076Z,88.93
2022-11-05T04:18:23.090Z,89.02
2022-11-05T04:19:26.159Z,89.31
2022-11-05T04:20:23.091Z,89.59
2022-11-05T04:21:23.094Z,90.06
2022-11-05T04:22:23.105Z,89.97
2022-11-05T04:23:23.106Z,90.06
2022-11-05T04:24:23.114Z,89.02
2022-11-05T04:25:23.120Z,89.02
2022-11-05T04:26:23.154Z,88.93
2022-11-05T04:27:23.140Z,89.31
2022-11-05T04:28:23.147Z,88.26
2022-11-05T04:29:23.138Z,87.51
2022-11-05T04:30:23.140Z,87.32
2022-11-05T04:31:23.147Z,87.60
2022-11-05T04:32:23.149Z,87.51
2022-11-05T04:33:23.156Z,87.60
2022-11-05T04:34:23.163Z,87.88
2022-11-05T04:35:23.168Z,88.36
2022-11-05T04:36:23.171Z,88.45
2022-11-05T04:37:23.178Z,89.31
2022-11-05T04:38:23.180Z,89.40
2022-11-05T04:39:23.188Z,89.40
2022-11-05T04:40:23.189Z,88.36
2022-11-05T04:41:23.207Z,89.31
2022-11-05T04:42:23.202Z,89.02
2022-11-05T04:43:23.579Z,89.69
2022-11-05T04:44:23.226Z,90.53
2022-11-05T04:45:23.250Z,91.01
2022-11-05T04:46:23.220Z,91.86
2022-11-05T04:47:23.328Z,92.05
2022-11-05T04:48:23.229Z,91.77
2022-11-05T04:49:23.238Z,92.61
2022-11-05T04:50:23.237Z,93.13
2022-11-05T04:51:23.249Z,92.99
2022-11-05T04:52:23.249Z,92.90
2022-11-05T04:53:23.261Z,93.56
2022-11-05T04:54:23.266Z,93.56
2022-11-05T04:55:23.295Z,93.56
2022-11-05T04:56:23.282Z,93.66
2022-11-05T04:57:23.274Z,94.32
2022-11-05T04:58:23.278Z,93.42
2022-11-05T04:59:23.292Z,92.00
2022-11-05T05:00:23.402Z,91.53
2022-11-05T05:01:23.583Z,90.86
2022-11-05T05:02:23.313Z,91.62
2022-11-05T05:03:23.304Z,93.23
2022-11-05T05:04:23.308Z,96.73
2022-11-05T05:05:23.323Z,97.58
2022-11-05T05:06:23.314Z,97.58
2022-11-05T05:07:23.325Z,98.33
2022-11-05T05:08:23.325Z,98.62
2022-11-05T05:09:23.329Z,98.62
2022-11-05T05:10:23.333Z,98.81
2022-11-05T05:11:23.338Z,97.96
2022-11-05T05:12:23.347Z,97.49
2022-11-05T05:13:23.351Z,96.83
2022-11-05T05:14:23.351Z,96.26
2022-11-05T05:15:23.361Z,95.88
2022-11-05T05:16:23.384Z,96.54
2022-11-05T05:17:23.368Z,96.35
2022-11-05T05:18:23.371Z,96.73
2022-11-05T05:19:23.379Z,96.92
2022-11-05T05:20:23.381Z,96.54
2022-11-05T05:21:23.387Z,95.50
2022-11-05T05:22:23.393Z,95.03
2022-11-05T05:23:23.397Z,95.21
2022-11-05T05:24:23.400Z,94.27
2022-11-05T05:25:23.421Z,94.08
2022-11-05T05:26:23.417Z,93.51
2022-11-05T05:27:23.424Z,93.42
2022-11-05T05:28:23.420Z,94.18
2022-11-05T05:29:23.432Z,95.78
2022-11-05T05:30:23.431Z,97.86
2022-11-05T05:31:23.455Z,98.52
2022-11-05T05:32:23.462Z,98.71
2022-11-05T05:33:23.449Z,99.85
2022-11-05T05:34:23.449Z,99.99
2022-11-05T05:35:23.468Z,99.99
2022-11-05T05:36:23.458Z,99.99
2022-11-05T05:37:23.466Z,99.99
2022-11-05T05:38:23.467Z,99.85
2022-11-05T05:39:23.475Z,99.99
2022-11-05T05:40:23.481Z,99.99
2022-11-05T05:41:23.484Z,99.99
2022-11-05T05:42:23.488Z,99.99
2022-11-05T05:43:23.500Z,99.99
2022-11-05T05:44:23.499Z,99.99
2022-11-05T05:45:23.506Z,99.99
2022-11-05T05:46:23.507Z,99.99
2022-11-05T05:47:23.513Z,99.99
2022-11-05T05:48:23.679Z,99.99
2022-11-05T05:49:23.522Z,99.99
2022-11-05T05:50:23.528Z,99.99
2022-11-05T05:51:23.533Z,99.99
2022-11-05T05:52:23.536Z,99.99
2022-11-05T05:53:23.542Z,99.85
2022-11-05T05:54:26.365Z,98.52
2022-11-05T05:55:23.552Z,99.95
2022-11-05T05:56:23.553Z,99.99
2022-11-05T05:57:23.563Z,99.99
2022-11-05T05:58:23.563Z,99.66
2022-11-05T05:59:23.572Z,99.57
2022-11-05T06:00:23.579Z,99.38
2022-11-05T06:01:23.627Z,99.85
2022-11-05T06:02:23.702Z,99.99
2022-11-05T06:03:23.593Z,99.99
2022-11-05T06:04:23.611Z,99.99
2022-11-05T06:05:23.597Z,99.99
2022-11-05T06:06:23.602Z,99.99
2022-11-05T06:07:23.610Z,99.99
2022-11-05T06:08:23.612Z,99.99
2022-11-05T06:09:23.617Z,99.99
2022-11-05T06:10:23.663Z,99.99
2022-11-05T06:11:23.628Z,99.99
2022-11-05T06:12:23.632Z,99.99
2022-11-05T06:13:23.639Z,99.99
2022-11-05T06:14:23.640Z,99.99
2022-11-05T06:15:23.655Z,99.99
2022-11-05T06:16:23.649Z,99.99
2022-11-05T06:17:23.657Z,99.99
2022-11-05T06:18:23.662Z,99.99
2022-11-05T06:19:23.667Z,99.99
2022-11-05T06:20:23.689Z,99.99
2022-11-05T06:21:23.676Z,99.99
2022-11-05T06:22:23.677Z,99.99
2022-11-05T06:23:23.697Z,99.99
2022-11-05T06:24:23.692Z,99.99
2022-11-05T06:25:23.697Z,99.99
2022-11-05T06:26:23.797Z,99.99
2022-11-05T06:27:23.712Z,99.99
2022-11-05T06:28:23.708Z,99.99
2022-11-05T06:29:23.714Z,99.99
2022-11-05T06:30:23.722Z,99.99
2022-11-05T06:31:23.722Z,99.99
2022-11-05T06:32:23.728Z,99.99
2022-11-05T06:33:23.733Z,99.99
2022-11-05T06:34:23.832Z,99.99
2022-11-05T06:35:23.739Z,99.99
2022-11-05T06:36:23.760Z,99.99
2022-11-05T06:37:23.749Z,99.99
2022-11-05T06:38:23.751Z,99.99
2022-11-05T06:39:23.757Z,99.99
2022-11-05T06:40:23.766Z,99.99
2022-11-05T06:41:23.777Z,99.99
2022-11-05T06:42:23.768Z,99.99
2022-11-05T06:43:23.779Z,99.99
2022-11-05T06:44:23.777Z,99.99
2022-11-05T06:45:23.784Z,99.99
2022-11-05T06:46:23.787Z,99.99
2022-11-05T06:47:23.794Z,99.99
2022-11-05T06:48:23.812Z,99.99
2022-11-05T06:49:23.802Z,99.99
2022-11-05T06:50:23.807Z,99.99
2022-11-05T06:51:23.813Z,99.99
2022-11-05T06:52:23.838Z,99.99
2022-11-05T06:53:23.820Z,99.99
2022-11-05T06:54:23.823Z,99.99
2022-11-05T06:55:23.831Z,99.99
2022-11-05T06:56:23.838Z,99.99
2022-11-05T06:57:23.841Z,99.99
2022-11-05T06:58:23.842Z,99.99
2022-11-05T06:59:23.848Z,99.99
2022-11-05T07:00:23.851Z,99.99
2022-11-05T07:01:23.979Z,99.99
2022-11-05T07:02:23.897Z,99.99
2022-11-05T07:03:23.868Z,99.99
2022-11-05T07:04:23.872Z,99.99
2022-11-05T07:05:23.878Z,99.99
2022-11-05T07:06:23.879Z,99.99
2022-11-05T07:07:23.887Z,99.99
2022-11-05T07:08:23.907Z,99.99
2022-11-05T07:09:23.894Z,99.99
2022-11-05T07:10:23.904Z,99.99
2022-11-05T07:11:23.912Z,99.99
2022-11-05T07:12:23.917Z,99.99
2022-11-05T07:13:23.919Z,99.99
2022-11-05T07:14:23.968Z,99.99
2022-11-05T07:15:23.924Z,99.99
2022-11-05T07:16:23.937Z,99.99
2022-11-05T07:17:23.934Z,99.99
2022-11-05T07:18:23.940Z,99.99
2022-11-05T07:19:23.943Z,99.99
2022-11-05T07:20:23.952Z,99.99
2022-11-05T07:21:23.953Z,99.99
2022-11-05T07:22:23.958Z,99.99
2022-11-05T07:23:23.964Z,99.99
2022-11-05T07:24:23.985Z,99.99
2022-11-05T07:25:23.971Z,99.99
2022-11-05T07:26:23.984Z,99.99
2022-11-05T07:27:23.991Z,99.99
2022-11-05T07:28:23.985Z,99.99
2022-11-05T07:29:23.991Z,99.99
2022-11-05T07:30:23.993Z,99.99
2022-11-05T07:31:24.008Z,99.99
2022-11-05T07:32:24.003Z,99.99
2022-11-05T07:33:24.009Z,98.48
2022-11-05T07:34:24.015Z,98.10
2022-11-05T07:35:24.018Z,98.01
2022-11-05T07:36:24.029Z,97.63
2022-11-05T07:37:24.027Z,98.67
2022-11-05T07:38:24.032Z,97.34
2022-11-05T07:39:24.038Z,97.44
2022-11-05T07:40:24.060Z,97.82
2022-11-05T07:41:24.044Z,99.24
2022-11-05T07:42:24.049Z,99.99
2022-11-05T07:43:24.056Z,99.99
2022-11-05T07:44:24.062Z,99.99
2022-11-05T07:45:24.063Z,99.99
2022-11-05T07:46:24.067Z,99.99
2022-11-05T07:47:24.074Z,99.99
2022-11-05T07:48:24.077Z,99.99
2022-11-05T07:49:24.083Z,99.99
2022-11-05T07:50:24.090Z,99.99
2022-11-05T07:51:24.095Z,99.99
2022-11-05T07:52:24.102Z,99.99
2022-11-05T07:53:24.153Z,99.99
2022-11-05T07:54:24.104Z,99.99
2022-11-05T07:55:24.111Z,99.99
2022-11-05T07:56:24.167Z,99.99
2022-11-05T07:57:24.125Z,99.33
2022-11-05T07:58:24.174Z,97.53
2022-11-05T07:59:24.132Z,95.07
2022-11-05T08:00:24.133Z,94.89
2022-11-05T08:01:24.350Z,95.07
2022-11-05T08:02:24.365Z,95.36
2022-11-05T08:03:24.277Z,95.59
2022-11-05T08:04:24.154Z,95.40
2022-11-05T08:05:24.162Z,95.03
2022-11-05T08:06:24.165Z,93.70
2022-11-05T08:07:24.173Z,92.66
2022-11-05T08:08:24.276Z,94.46
2022-11-05T08:09:24.181Z,92.47
2022-11-05T08:10:24.188Z,92.19
2022-11-05T08:11:24.198Z,89.16
2022-11-05T08:12:24.218Z,89.25
2022-11-05T08:13:24.213Z,87.84
2022-11-05T08:14:24.207Z,88.59
2022-11-05T08:15:24.216Z,89.44
2022-11-05T08:16:24.216Z,89.44
2022-11-05T08:17:24.225Z,89.35
2022-11-05T08:18:24.230Z,88.12
2022-11-05T08:19:24.236Z,88.12
2022-11-05T08:20:24.238Z,90.58
2022-11-05T08:21:24.246Z,92.94
2022-11-05T08:22:24.253Z,92.94
2022-11-05T08:23:24.258Z,92.85
2022-11-05T08:24:24.268Z,92.66
2022-11-05T08:25:24.274Z,92.29
2022-11-05T08:26:24.272Z,92.10
2022-11-05T08:27:24.282Z,93.70
2022-11-05T08:28:24.304Z,95.40
2022-11-05T08:29:24.294Z,95.45
2022-11-05T08:30:24.304Z,94.13
2022-11-05T08:31:24.326Z,93.56
2022-11-05T08:32:24.307Z,92.52
2022-11-05T08:33:24.316Z,92.90
2022-11-05T08:34:24.322Z,92.00
2022-11-05T08:35:24.328Z,90.39
2022-11-05T08:36:24.332Z,88.21
2022-11-05T08:37:24.343Z,88.02
2022-11-05T08:38:24.346Z,87.64
2022-11-05T08:39:24.348Z,87.45
2022-11-05T08:40:24.391Z,93.13
2022-11-05T08:41:24.366Z,98.01
2022-11-05T08:42:24.371Z,99.99
2022-11-05T08:43:24.389Z,99.99
2022-11-05T08:44:24.406Z,99.99
2022-11-05T08:45:24.387Z,99.99
2022-11-05T08:46:24.397Z,99.99
2022-11-05T08:47:24.404Z,99.99
2022-11-05T08:48:24.420Z,99.99
2022-11-05T08:49:24.417Z,99.99
2022-11-05T08:50:24.472Z,99.99
2022-11-05T08:51:24.425Z,99.52
2022-11-05T08:52:24.437Z,98.49
2022-11-05T08:53:24.443Z,95.83
2022-11-05T08:54:24.448Z,93.75
2022-11-05T08:55:24.453Z,93.08
2022-11-05T08:56:24.558Z,93.84
2022-11-05T08:57:24.463Z,93.27
2022-11-05T08:58:24.473Z,94.60
2022-11-05T08:59:24.477Z,97.44
2022-11-05T09:00:24.534Z,99.99
2022-11-05T09:01:24.592Z,99.99
2022-11-05T09:02:24.744Z,97.35
2022-11-05T09:03:24.500Z,96.40
2022-11-05T09:04:24.510Z,96.69
2022-11-05T09:05:24.516Z,95.26
2022-11-05T09:06:24.522Z,95.64
2022-11-05T09:07:24.536Z,96.97
2022-11-05T09:08:24.554Z,99.99
2022-11-05T09:09:24.538Z,99.99
2022-11-05T09:10:24.549Z,99.99
2022-11-05T09:11:43.019Z,99.99
2022-11-05T09:12:24.662Z,99.43
2022-11-05T09:13:25.027Z,97.73
2022-11-05T09:14:24.579Z,97.63
2022-11-05T09:15:24.581Z,96.69
2022-11-05T09:16:24.604Z,92.80
2022-11-05T09:17:24.589Z,91.95
2022-11-05T09:18:24.599Z,92.99
2022-11-05T09:19:24.601Z,92.19
2022-11-05T09:20:24.678Z,91.90
2022-11-05T09:21:24.612Z,91.71
2022-11-05T09:22:24.621Z,92.66
2022-11-05T09:23:24.628Z,98.02
2022-11-05T09:24:24.636Z,99.99
2022-11-05T09:25:24.639Z,99.99
2022-11-05T09:26:24.650Z,99.99
2022-11-05T09:27:24.654Z,99.99
2022-11-05T09:28:24.669Z,96.12
2022-11-05T09:29:24.666Z,96.69
2022-11-05T09:30:24.674Z,94.42
2022-11-05T09:31:24.684Z,94.89
2022-11-05T09:32:24.707Z,93.46
2022-11-05T09:33:24.692Z,90.62
2022-11-05T09:34:24.704Z,91.85
2022-11-05T09:35:24.707Z,98.25
2022-11-05T09:36:24.719Z,99.99
2022-11-05T09:37:24.729Z,99.20
2022-11-05T09:38:24.729Z,99.96
2022-11-05T09:39:24.734Z,99.99
2022-11-05T09:40:24.741Z,99.99
2022-11-05T09:41:24.750Z,98.96
2022-11-05T09:42:24.755Z,97.92
2022-11-05T09:43:31.171Z,99.99
2022-11-05T09:44:24.770Z,99.99
2022-11-05T09:45:24.776Z,99.99
2022-11-05T09:46:24.784Z,99.99
2022-11-05T09:47:24.789Z,99.99
2022-11-05T09:48:24.820Z,99.99
2022-11-05T09:49:24.802Z,99.99
2022-11-05T09:50:24.833Z,99.99
2022-11-05T09:51:24.828Z,99.99
2022-11-05T09:52:24.824Z,99.99
2022-11-05T09:53:24.830Z,98.02
2022-11-05T09:54:24.838Z,97.54
2022-11-05T09:55:24.843Z,95.84
2022-11-05T09:56:24.856Z,96.03
2022-11-05T09:57:24.857Z,99.53
2022-11-05T09:58:28.667Z,95.93
2022-11-05T09:59:24.870Z,96.50
2022-11-05T10:00:24.880Z,98.87
2022-11-05T10:01:25.193Z,96.50
2022-11-05T10:02:24.924Z,97.68
2022-11-05T10:03:24.901Z,99.58
2022-11-05T10:04:24.925Z,96.83
2022-11-05T10:05:24.949Z,99.53
2022-11-05T10:06:24.925Z,96.59
2022-11-05T10:07:24.942Z,96.88
2022-11-05T10:08:24.944Z,95.26
2022-11-05T10:09:24.942Z,99.99
2022-11-05T10:10:24.951Z,99.99
2022-11-05T10:11:24.956Z,99.63
2022-11-05T10:12:24.967Z,92.23
2022-11-05T10:13:24.970Z,93.37
2022-11-05T10:14:24.979Z,87.87
2022-11-05T10:15:24.986Z,82.97
2022-11-05T10:16:24.999Z,86.20
2022-11-05T10:17:25.017Z,86.34
2022-11-05T10:18:25.007Z,83.30
2022-11-05T10:19:25.017Z,79.60
2022-11-05T10:20:25.045Z,78.55
2022-11-05T10:21:51.307Z,77.79
2022-11-05T10:22:25.041Z,75.99
2022-11-05T10:23:25.048Z,75.81
2022-11-05T10:24:25.056Z,80.94
2022-11-05T10:25:25.070Z,83.22
2022-11-05T10:26:25.074Z,83.03
2022-11-05T10:27:25.086Z,87.30
2022-11-05T10:28:25.089Z,86.20
2022-11-05T10:29:25.098Z,80.08
2022-11-05T10:30:25.107Z,84.45
2022-11-05T10:31:25.123Z,98.49
2022-11-05T10:32:25.122Z,91.66
2022-11-05T10:33:25.133Z,92.90
2022-11-05T10:34:25.142Z,93.99
2022-11-05T10:35:25.146Z,99.99
2022-11-05T10:36:25.240Z,94.51
2022-11-05T10:37:25.173Z,99.99
2022-11-05T10:38:25.172Z,94.18
2022-11-05T10:39:25.180Z,90.85
2022-11-05T10:40:25.195Z,83.73
2022-11-05T10:41:25.211Z,83.36
2022-11-05T10:42:25.205Z,83.07
2022-11-05T10:43:25.215Z,81.41
2022-11-05T10:44:25.223Z,80.41
2022-11-05T10:45:25.246Z,80.46
2022-11-05T10:46:25.241Z,80.56
2022-11-05T10:47:25.247Z,80.65
2022-11-05T10:48:25.256Z,82.04
2022-11-05T10:49:25.266Z,81.70
2022-11-05T10:50:25.273Z,82.51
2022-11-05T10:51:25.290Z,85.36
2022-11-05T10:52:25.307Z,84.50
2022-11-05T10:53:25.297Z,85.17
2022-11-05T10:54:25.305Z,85.36
2022-11-05T10:55:25.316Z,83.88
2022-11-05T10:56:25.329Z,82.74
2022-11-05T10:57:25.331Z,87.05
2022-11-05T10:58:25.340Z,95.70
2022-11-05T10:59:25.446Z,90.61
2022-11-05T11:00:25.356Z,83.01
2022-11-05T11:01:25.546Z,84.82
2022-11-05T11:02:25.440Z,86.76
2022-11-05T11:03:25.381Z,84.95
2022-11-05T11:04:25.389Z,82.68
2022-11-05T11:05:25.397Z,88.00
2022-11-05T11:06:25.406Z,82.87
2022-11-05T11:07:25.424Z,89.80
2022-11-05T11:08:25.445Z,82.49
2022-11-05T11:09:25.430Z,83.59
2022-11-05T11:10:25.445Z,82.82
2022-11-05T11:11:25.465Z,83.39
2022-11-05T11:12:25.484Z,84.49
2022-11-05T11:13:25.468Z,89.05
2022-11-05T11:14:25.480Z,88.91
2022-11-05T11:15:25.485Z,89.20
2022-11-05T11:16:25.496Z,94.93
2022-11-05T11:17:25.503Z,96.36
2022-11-05T11:18:25.516Z,89.53
2022-11-05T11:19:25.531Z,87.19
2022-11-05T11:20:25.532Z,88.62
2022-11-05T11:21:25.542Z,83.39
2022-11-05T11:22:25.550Z,86.91
2022-11-05T11:23:25.560Z,86.53
2022-11-05T11:24:28.559Z,83.78
2022-11-05T11:25:25.581Z,84.97
2022-11-05T11:26:25.591Z,88.10
2022-11-05T11:27:25.597Z,93.04
2022-11-05T11:28:25.605Z,90.99
2022-11-05T11:29:25.618Z,85.49
2022-11-05T11:30:25.625Z,85.77
2022-11-05T11:31:25.634Z,80.55
2022-11-05T11:32:25.644Z,79.50
2022-11-05T11:33:25.661Z,80.45
2022-11-05T11:34:25.662Z,78.23
2022-11-05T11:35:25.671Z,78.13
2022-11-05T11:36:25.696Z,81.51
2022-11-05T11:37:25.694Z,83.22
2022-11-05T11:38:25.703Z,91.09
2022-11-05T11:39:25.707Z,91.24
2022-11-05T11:40:25.739Z,93.27
2022-11-05T11:41:25.729Z,84.01
2022-11-05T11:42:25.745Z,80.07
2022-11-05T11:43:25.744Z,78.21
2022-11-05T11:44:25.755Z,81.82
2022-11-05T11:45:25.764Z,83.44
2022-11-05T11:46:25.781Z,86.53
2022-11-05T11:47:25.781Z,93.46
2022-11-05T11:48:25.790Z,90.09
2022-11-05T11:49:25.800Z,98.16
2022-11-05T11:50:25.813Z,98.31
2022-11-05T11:51:25.818Z,92.75
2022-11-05T11:52:25.829Z,93.79
2022-11-05T11:53:25.840Z,91.37
2022-11-05T11:54:29.003Z,86.66
2022-11-05T11:55:25.874Z,85.99
2022-11-05T11:56:25.887Z,87.32
2022-11-05T11:57:25.879Z,83.56
2022-11-05T11:58:25.886Z,79.09
2022-11-05T11:59:46.625Z,75.49
2022-11-05T12:00:25.913Z,73.11
2022-11-05T12:01:25.936Z,74.92
2022-11-05T12:02:26.028Z,77.58
2022-11-05T12:03:25.998Z,76.35
2022-11-05T12:04:25.957Z,80.53
2022-11-05T12:05:25.958Z,75.78
2022-11-05T12:06:25.967Z,74.41
2022-11-05T12:07:25.997Z,76.03
2022-11-05T12:08:25.986Z,80.34
2022-11-05T12:09:25.994Z,77.39
2022-11-05T12:10:26.010Z,82.53
2022-11-05T12:11:26.020Z,87.38
2022-11-05T12:12:26.048Z,83.72
2022-11-05T12:13:26.038Z,82.07
2022-11-05T12:14:26.065Z,84.82
2022-11-05T12:15:26.071Z,82.26
2022-11-05T12:16:26.075Z,83.44
2022-11-05T12:17:26.080Z,78.91
2022-11-05T12:18:26.107Z,86.33
2022-11-05T12:19:26.101Z,83.10
2022-11-05T12:20:26.113Z,80.05
2022-11-05T12:21:50.964Z,82.07
2022-11-05T12:22:26.132Z,84.82
2022-11-05T12:23:26.142Z,85.20
2022-11-05T12:24:26.154Z,87.34
2022-11-05T12:25:26.167Z,86.10
2022-11-05T12:26:26.173Z,85.05
2022-11-05T12:27:26.181Z,84.91
2022-11-05T12:28:26.213Z,79.86
2022-11-05T12:29:29.055Z,77.30
2022-11-05T12:30:26.213Z,79.05
2022-11-05T12:31:26.224Z,75.05
2022-11-05T12:32:26.259Z,73.82
2022-11-05T12:33:26.246Z,74.58
2022-11-05T12:34:26.256Z,73.34
2022-11-05T12:35:26.263Z,70.90
2022-11-05T12:36:26.275Z,71.22
2022-11-05T12:37:26.284Z,71.95
2022-11-05T12:38:26.298Z,72.33
2022-11-05T12:39:26.312Z,75.13
2022-11-05T12:40:26.319Z,71.22
2022-11-05T12:41:26.328Z,69.89
2022-11-05T12:42:26.364Z,67.03
2022-11-05T12:43:26.388Z,68.81
2022-11-05T12:44:26.381Z,70.90
2022-11-05T12:45:26.370Z,71.78
2022-11-05T12:46:26.385Z,76.21
2022-11-05T12:47:26.395Z,78.34
2022-11-05T12:48:30.293Z,79.30
2022-11-05T12:49:26.417Z,78.53
2022-11-05T12:50:26.430Z,76.44
2022-11-05T12:51:26.438Z,75.30
2022-11-05T12:52:26.453Z,76.69